sensor_id;sensor_type;location;lat;lon;timestamp;P1;durP1;ratioP1;P2;durP2;ratioP2
51296;SDS011;37380;45.186;9.792;2023-07-20T00:00:24;16.20;;;5.43;;
51296;SDS011;37380;45.186;9.792;2023-07-20T00:03:25;8.48;;;4.10;;
51296;SDS011;37380;45.186;9.792;2023-07-20T00:06:13;8.85;;;4.28;;
51296;SDS011;37380;45.186;9.792;2023-07-20T00:08:40;10.43;;;3.70;;
51296;SDS011;37380;45.186;9.792;2023-07-20T00:11:07;7.20;;;5.00;;
51296;SDS011;37380;45.186;9.792;2023-07-20T00:13:34;16.02;;;6.15;;
51296;SDS011;37380;45.186;9.792;2023-07-20T00:16:01;13.63;;;7.43;;
51296;SDS011;37380;45.186;9.792;2023-07-20T00:18:28;9.23;;;6.07;;
51296;SDS011;37380;45.186;9.792;2023-07-20T00:20:55;21.33;;;6.80;;
51296;SDS011;37380;45.186;9.792;2023-07-20T00:23:22;13.95;;;6.85;;
51296;SDS011;37380;45.186;9.792;2023-07-20T00:25:49;11.27;;;6.82;;
51296;SDS011;37380;45.186;9.792;2023-07-20T00:28:16;13.77;;;5.85;;
51296;SDS011;37380;45.186;9.792;2023-07-20T00:30:43;10.13;;;5.80;;
51296;SDS011;37380;45.186;9.792;2023-07-20T00:33:11;12.15;;;7.85;;
51296;SDS011;37380;45.186;9.792;2023-07-20T00:35:39;14.05;;;7.72;;
51296;SDS011;37380;45.186;9.792;2023-07-20T00:38:06;11.05;;;6.57;;
51296;SDS011;37380;45.186;9.792;2023-07-20T00:40:39;10.60;;;6.60;;
51296;SDS011;37380;45.186;9.792;2023-07-20T00:43:42;19.40;;;8.20;;
51296;SDS011;37380;45.186;9.792;2023-07-20T00:46:37;15.13;;;10.38;;
51296;SDS011;37380;45.186;9.792;2023-07-20T00:49:05;12.57;;;10.32;;
51296;SDS011;37380;45.186;9.792;2023-07-20T00:51:33;20.50;;;8.93;;
51296;SDS011;37380;45.186;9.792;2023-07-20T00:54:01;8.80;;;7.45;;
51296;SDS011;37380;45.186;9.792;2023-07-20T00:56:29;14.45;;;10.18;;
51296;SDS011;37380;45.186;9.792;2023-07-20T00:59:02;12.60;;;8.63;;
51296;SDS011;37380;45.186;9.792;2023-07-20T01:02:03;11.02;;;8.55;;
51296;SDS011;37380;45.186;9.792;2023-07-20T01:04:58;10.82;;;8.23;;
51296;SDS011;37380;45.186;9.792;2023-07-20T01:07:32;16.90;;;10.43;;
51296;SDS011;37380;45.186;9.792;2023-07-20T01:10:09;12.70;;;9.20;;
51296;SDS011;37380;45.186;9.792;2023-07-20T01:12:45;13.07;;;9.80;;
51296;SDS011;37380;45.186;9.792;2023-07-20T01:15:15;11.80;;;9.77;;
51296;SDS011;37380;45.186;9.792;2023-07-20T01:17:42;12.77;;;10.38;;
51296;SDS011;37380;45.186;9.792;2023-07-20T01:20:12;19.92;;;10.95;;
51296;SDS011;37380;45.186;9.792;2023-07-20T01:22:55;21.33;;;10.65;;
51296;SDS011;37380;45.186;9.792;2023-07-20T01:26:08;15.32;;;10.88;;
51296;SDS011;37380;45.186;9.792;2023-07-20T01:31:40;14.07;;;11.25;;
51296;SDS011;37380;45.186;9.792;2023-07-20T01:34:15;13.80;;;11.50;;
51296;SDS011;37380;45.186;9.792;2023-07-20T01:37:18;16.42;;;10.75;;
51296;SDS011;37380;45.186;9.792;2023-07-20T01:40:16;13.95;;;10.18;;
51296;SDS011;37380;45.186;9.792;2023-07-20T01:42:44;15.60;;;12.02;;
51296;SDS011;37380;45.186;9.792;2023-07-20T01:45:13;18.05;;;11.20;;
51296;SDS011;37380;45.186;9.792;2023-07-20T01:47:40;16.73;;;11.20;;
51296;SDS011;37380;45.186;9.792;2023-07-20T01:50:07;16.85;;;9.77;;
51296;SDS011;37380;45.186;9.792;2023-07-20T01:52:35;14.38;;;10.43;;
51296;SDS011;37380;45.186;9.792;2023-07-20T01:55:02;19.45;;;12.20;;
51296;SDS011;37380;45.186;9.792;2023-07-20T01:57:31;11.10;;;10.00;;
51296;SDS011;37380;45.186;9.792;2023-07-20T02:00:05;16.08;;;11.18;;
51296;SDS011;37380;45.186;9.792;2023-07-20T02:03:05;16.23;;;10.93;;
51296;SDS011;37380;45.186;9.792;2023-07-20T02:06:00;14.40;;;9.55;;
51296;SDS011;37380;45.186;9.792;2023-07-20T02:08:27;12.07;;;10.05;;
51296;SDS011;37380;45.186;9.792;2023-07-20T02:10:56;14.30;;;11.43;;
51296;SDS011;37380;45.186;9.792;2023-07-20T02:13:23;14.82;;;10.27;;
51296;SDS011;37380;45.186;9.792;2023-07-20T02:15:50;11.63;;;9.90;;
51296;SDS011;37380;45.186;9.792;2023-07-20T02:18:18;12.85;;;9.80;;
51296;SDS011;37380;45.186;9.792;2023-07-20T02:20:45;10.85;;;9.88;;
51296;SDS011;37380;45.186;9.792;2023-07-20T02:23:12;19.77;;;11.88;;
51296;SDS011;37380;45.186;9.792;2023-07-20T02:25:40;14.25;;;11.57;;
51296;SDS011;37380;45.186;9.792;2023-07-20T02:28:14;16.67;;;13.02;;
51296;SDS011;37380;45.186;9.792;2023-07-20T02:31:14;17.42;;;12.60;;
51296;SDS011;37380;45.186;9.792;2023-07-20T02:34:05;12.13;;;10.70;;
51296;SDS011;37380;45.186;9.792;2023-07-20T02:36:33;13.23;;;10.98;;
51296;SDS011;37380;45.186;9.792;2023-07-20T02:39:01;19.77;;;11.15;;
51296;SDS011;37380;45.186;9.792;2023-07-20T02:41:30;12.75;;;11.35;;
51296;SDS011;37380;45.186;9.792;2023-07-20T02:43:59;15.55;;;10.68;;
51296;SDS011;37380;45.186;9.792;2023-07-20T02:46:26;17.98;;;10.65;;
51296;SDS011;37380;45.186;9.792;2023-07-20T02:48:53;17.70;;;9.73;;
51296;SDS011;37380;45.186;9.792;2023-07-20T02:51:20;12.25;;;9.95;;
51296;SDS011;37380;45.186;9.792;2023-07-20T02:53:47;13.57;;;9.88;;
51296;SDS011;37380;45.186;9.792;2023-07-20T02:56:14;22.67;;;10.25;;
51296;SDS011;37380;45.186;9.792;2023-07-20T02:58:48;12.75;;;9.45;;
51296;SDS011;37380;45.186;9.792;2023-07-20T03:01:50;15.30;;;10.73;;
51296;SDS011;37380;45.186;9.792;2023-07-20T03:04:51;15.07;;;10.10;;
51296;SDS011;37380;45.186;9.792;2023-07-20T03:07:54;11.63;;;9.25;;
51296;SDS011;37380;45.186;9.792;2023-07-20T03:10:53;12.43;;;10.75;;
51296;SDS011;37380;45.186;9.792;2023-07-20T03:13:20;11.43;;;9.45;;
51296;SDS011;37380;45.186;9.792;2023-07-20T03:15:47;15.90;;;9.70;;
51296;SDS011;37380;45.186;9.792;2023-07-20T03:18:14;13.55;;;9.70;;
51296;SDS011;37380;45.186;9.792;2023-07-20T03:20:41;18.25;;;10.35;;
51296;SDS011;37380;45.186;9.792;2023-07-20T03:23:08;13.18;;;9.30;;
51296;SDS011;37380;45.186;9.792;2023-07-20T03:25:35;15.73;;;10.20;;
51296;SDS011;37380;45.186;9.792;2023-07-20T03:28:04;10.95;;;9.95;;
51296;SDS011;37380;45.186;9.792;2023-07-20T03:30:31;15.80;;;10.35;;
51296;SDS011;37380;45.186;9.792;2023-07-20T03:32:59;11.52;;;10.43;;
51296;SDS011;37380;45.186;9.792;2023-07-20T03:35:26;10.98;;;9.82;;
51296;SDS011;37380;45.186;9.792;2023-07-20T03:37:53;16.00;;;9.40;;
51296;SDS011;37380;45.186;9.792;2023-07-20T03:40:21;13.32;;;11.23;;
51296;SDS011;37380;45.186;9.792;2023-07-20T03:42:51;17.75;;;11.40;;
51296;SDS011;37380;45.186;9.792;2023-07-20T03:45:18;15.50;;;11.85;;
51296;SDS011;37380;45.186;9.792;2023-07-20T03:47:45;13.52;;;10.10;;
51296;SDS011;37380;45.186;9.792;2023-07-20T03:50:15;13.75;;;11.55;;
51296;SDS011;37380;45.186;9.792;2023-07-20T03:52:42;12.50;;;10.48;;
51296;SDS011;37380;45.186;9.792;2023-07-20T03:55:09;15.05;;;10.70;;
51296;SDS011;37380;45.186;9.792;2023-07-20T03:57:36;16.83;;;12.27;;
51296;SDS011;37380;45.186;9.792;2023-07-20T04:00:11;17.90;;;11.45;;
51296;SDS011;37380;45.186;9.792;2023-07-20T04:03:12;15.80;;;12.05;;
51296;SDS011;37380;45.186;9.792;2023-07-20T04:06:14;17.40;;;11.00;;
51296;SDS011;37380;45.186;9.792;2023-07-20T04:09:08;13.60;;;10.93;;
51296;SDS011;37380;45.186;9.792;2023-07-20T04:11:35;14.10;;;10.25;;
51296;SDS011;37380;45.186;9.792;2023-07-20T04:14:02;21.30;;;11.38;;
51296;SDS011;37380;45.186;9.792;2023-07-20T04:16:29;20.00;;;12.98;;
51296;SDS011;37380;45.186;9.792;2023-07-20T04:18:56;18.60;;;13.45;;
51296;SDS011;37380;45.186;9.792;2023-07-20T04:21:25;19.95;;;11.15;;
51296;SDS011;37380;45.186;9.792;2023-07-20T04:23:55;19.63;;;9.75;;
51296;SDS011;37380;45.186;9.792;2023-07-20T04:26:23;17.98;;;13.73;;
51296;SDS011;37380;45.186;9.792;2023-07-20T04:28:51;24.20;;;13.77;;
51296;SDS011;37380;45.186;9.792;2023-07-20T04:31:32;13.07;;;11.07;;
51296;SDS011;37380;45.186;9.792;2023-07-20T04:34:00;19.33;;;12.05;;
51296;SDS011;37380;45.186;9.792;2023-07-20T04:36:28;17.98;;;11.10;;
51296;SDS011;37380;45.186;9.792;2023-07-20T04:38:55;24.02;;;15.25;;
51296;SDS011;37380;45.186;9.792;2023-07-20T04:41:22;17.65;;;12.23;;
51296;SDS011;37380;45.186;9.792;2023-07-20T04:43:58;19.17;;;14.15;;
51296;SDS011;37380;45.186;9.792;2023-07-20T04:46:59;16.35;;;12.10;;
51296;SDS011;37380;45.186;9.792;2023-07-20T04:49:55;16.65;;;11.63;;
51296;SDS011;37380;45.186;9.792;2023-07-20T04:52:30;13.60;;;11.02;;
51296;SDS011;37380;45.186;9.792;2023-07-20T04:55:34;13.63;;;10.97;;
51296;SDS011;37380;45.186;9.792;2023-07-20T04:58:37;15.13;;;9.88;;
51296;SDS011;37380;45.186;9.792;2023-07-20T05:01:39;15.43;;;11.20;;
51296;SDS011;37380;45.186;9.792;2023-07-20T05:04:33;28.60;;;12.25;;
51296;SDS011;37380;45.186;9.792;2023-07-20T05:07:05;17.77;;;10.88;;
51296;SDS011;37380;45.186;9.792;2023-07-20T05:09:33;15.70;;;9.02;;
51296;SDS011;37380;45.186;9.792;2023-07-20T05:12:00;19.33;;;11.73;;
51296;SDS011;37380;45.186;9.792;2023-07-20T05:14:27;16.95;;;9.73;;
51296;SDS011;37380;45.186;9.792;2023-07-20T05:16:54;16.38;;;9.25;;
51296;SDS011;37380;45.186;9.792;2023-07-20T05:19:21;19.13;;;9.00;;
51296;SDS011;37380;45.186;9.792;2023-07-20T05:21:48;14.00;;;8.73;;
51296;SDS011;37380;45.186;9.792;2023-07-20T05:24:15;16.88;;;7.93;;
51296;SDS011;37380;45.186;9.792;2023-07-20T05:26:42;31.80;;;7.55;;
51296;SDS011;37380;45.186;9.792;2023-07-20T05:29:09;12.85;;;6.85;;
51296;SDS011;37380;45.186;9.792;2023-07-20T05:31:36;20.83;;;7.28;;
51296;SDS011;37380;45.186;9.792;2023-07-20T05:34:03;22.80;;;8.30;;
51296;SDS011;37380;45.186;9.792;2023-07-20T05:36:30;7.82;;;5.93;;
51296;SDS011;37380;45.186;9.792;2023-07-20T05:38:58;14.80;;;5.38;;
51296;SDS011;37380;45.186;9.792;2023-07-20T05:41:25;7.32;;;5.68;;
51296;SDS011;37380;45.186;9.792;2023-07-20T05:43:52;9.82;;;6.40;;
51296;SDS011;37380;45.186;9.792;2023-07-20T05:46:19;17.58;;;5.35;;
51296;SDS011;37380;45.186;9.792;2023-07-20T05:48:46;10.32;;;6.18;;
51296;SDS011;37380;45.186;9.792;2023-07-20T05:51:13;11.18;;;5.70;;
51296;SDS011;37380;45.186;9.792;2023-07-20T05:53:40;9.05;;;5.65;;
51296;SDS011;37380;45.186;9.792;2023-07-20T05:56:08;23.90;;;6.28;;
51296;SDS011;37380;45.186;9.792;2023-07-20T05:58:36;17.27;;;7.93;;
51296;SDS011;37380;45.186;9.792;2023-07-20T06:01:03;16.73;;;6.88;;
51296;SDS011;37380;45.186;9.792;2023-07-20T06:03:33;16.70;;;6.47;;
51296;SDS011;37380;45.186;9.792;2023-07-20T06:06:01;9.57;;;6.28;;
51296;SDS011;37380;45.186;9.792;2023-07-20T06:08:28;10.55;;;7.43;;
51296;SDS011;37380;45.186;9.792;2023-07-20T06:11:02;9.13;;;6.53;;
51296;SDS011;37380;45.186;9.792;2023-07-20T06:14:03;10.20;;;6.38;;
51296;SDS011;37380;45.186;9.792;2023-07-20T06:16:57;20.30;;;6.18;;
51296;SDS011;37380;45.186;9.792;2023-07-20T06:19:24;9.48;;;6.90;;
51296;SDS011;37380;45.186;9.792;2023-07-20T06:21:51;10.55;;;7.43;;
51296;SDS011;37380;45.186;9.792;2023-07-20T06:24:18;6.20;;;5.65;;
51296;SDS011;37380;45.186;9.792;2023-07-20T06:26:45;8.80;;;5.60;;
51296;SDS011;37380;45.186;9.792;2023-07-20T06:29:12;11.65;;;5.78;;
51296;SDS011;37380;45.186;9.792;2023-07-20T06:31:39;7.30;;;5.22;;
51296;SDS011;37380;45.186;9.792;2023-07-20T06:34:06;9.10;;;6.78;;
51296;SDS011;37380;45.186;9.792;2023-07-20T06:36:33;10.15;;;6.20;;
51296;SDS011;37380;45.186;9.792;2023-07-20T06:39:00;9.40;;;6.10;;
51296;SDS011;37380;45.186;9.792;2023-07-20T06:41:32;9.55;;;6.40;;
51296;SDS011;37380;45.186;9.792;2023-07-20T06:44:01;13.65;;;7.05;;
51296;SDS011;37380;45.186;9.792;2023-07-20T06:46:34;11.75;;;9.35;;
51296;SDS011;37380;45.186;9.792;2023-07-20T06:49:01;12.73;;;8.10;;
51296;SDS011;37380;45.186;9.792;2023-07-20T06:51:31;7.25;;;6.50;;
51296;SDS011;37380;45.186;9.792;2023-07-20T06:54:05;6.38;;;5.70;;
51296;SDS011;37380;45.186;9.792;2023-07-20T06:57:11;12.48;;;7.75;;
51296;SDS011;37380;45.186;9.792;2023-07-20T07:00:03;11.93;;;6.15;;
51296;SDS011;37380;45.186;9.792;2023-07-20T07:03:04;9.55;;;5.22;;
51296;SDS011;37380;45.186;9.792;2023-07-20T07:05:58;27.85;;;17.55;;
51296;SDS011;37380;45.186;9.792;2023-07-20T07:08:25;11.00;;;7.60;;
51296;SDS011;37380;45.186;9.792;2023-07-20T07:10:59;18.50;;;13.80;;
51296;SDS011;37380;45.186;9.792;2023-07-20T07:14:00;13.80;;;9.02;;
51296;SDS011;37380;45.186;9.792;2023-07-20T07:16:54;8.68;;;5.85;;
51296;SDS011;37380;45.186;9.792;2023-07-20T07:19:24;12.38;;;7.05;;
51296;SDS011;37380;45.186;9.792;2023-07-20T07:21:51;13.50;;;5.90;;
51296;SDS011;37380;45.186;9.792;2023-07-20T07:24:18;8.25;;;6.50;;
51296;SDS011;37380;45.186;9.792;2023-07-20T07:26:45;10.95;;;7.20;;
51296;SDS011;37380;45.186;9.792;2023-07-20T07:29:12;10.82;;;6.82;;
51296;SDS011;37380;45.186;9.792;2023-07-20T07:31:39;14.43;;;5.53;;
51296;SDS011;37380;45.186;9.792;2023-07-20T07:34:07;9.68;;;5.95;;
51296;SDS011;37380;45.186;9.792;2023-07-20T07:36:34;7.90;;;5.55;;
51296;SDS011;37380;45.186;9.792;2023-07-20T07:39:01;11.23;;;5.95;;
51296;SDS011;37380;45.186;9.792;2023-07-20T07:41:48;11.45;;;5.20;;
51296;SDS011;37380;45.186;9.792;2023-07-20T07:44:15;13.52;;;6.70;;
51296;SDS011;37380;45.186;9.792;2023-07-20T07:46:42;9.80;;;4.47;;
51296;SDS011;37380;45.186;9.792;2023-07-20T07:49:09;9.73;;;6.18;;
51296;SDS011;37380;45.186;9.792;2023-07-20T07:51:36;13.40;;;6.43;;
51296;SDS011;37380;45.186;9.792;2023-07-20T07:54:04;9.88;;;7.03;;
51296;SDS011;37380;45.186;9.792;2023-07-20T07:56:31;17.73;;;7.53;;
51296;SDS011;37380;45.186;9.792;2023-07-20T07:58:58;16.45;;;11.40;;
51296;SDS011;37380;45.186;9.792;2023-07-20T08:01:25;9.27;;;6.47;;
51296;SDS011;37380;45.186;9.792;2023-07-20T08:03:52;17.55;;;6.57;;
51296;SDS011;37380;45.186;9.792;2023-07-20T08:06:19;17.67;;;8.50;;
51296;SDS011;37380;45.186;9.792;2023-07-20T08:08:46;14.68;;;7.00;;
51296;SDS011;37380;45.186;9.792;2023-07-20T08:11:13;9.95;;;5.78;;
51296;SDS011;37380;45.186;9.792;2023-07-20T08:13:41;12.05;;;6.90;;
51296;SDS011;37380;45.186;9.792;2023-07-20T08:16:08;14.07;;;8.02;;
51296;SDS011;37380;45.186;9.792;2023-07-20T08:18:35;18.30;;;7.18;;
51296;SDS011;37380;45.186;9.792;2023-07-20T08:21:02;10.23;;;6.95;;
51296;SDS011;37380;45.186;9.792;2023-07-20T08:23:30;7.93;;;6.20;;
51296;SDS011;37380;45.186;9.792;2023-07-20T08:25:57;11.30;;;5.80;;
51296;SDS011;37380;45.186;9.792;2023-07-20T08:28:24;6.82;;;6.18;;
51296;SDS011;37380;45.186;9.792;2023-07-20T08:30:53;10.85;;;5.57;;
51296;SDS011;37380;45.186;9.792;2023-07-20T08:33:20;9.82;;;6.70;;
51296;SDS011;37380;45.186;9.792;2023-07-20T08:35:47;17.23;;;8.60;;
51296;SDS011;37380;45.186;9.792;2023-07-20T08:38:14;14.23;;;8.30;;
51296;SDS011;37380;45.186;9.792;2023-07-20T08:40:42;16.70;;;10.40;;
51296;SDS011;37380;45.186;9.792;2023-07-20T08:43:45;24.38;;;9.02;;
51296;SDS011;37380;45.186;9.792;2023-07-20T08:46:40;10.68;;;6.22;;
51296;SDS011;37380;45.186;9.792;2023-07-20T08:49:08;14.80;;;7.60;;
51296;SDS011;37380;45.186;9.792;2023-07-20T08:51:35;15.55;;;6.20;;
51296;SDS011;37380;45.186;9.792;2023-07-20T08:54:03;10.73;;;6.88;;
51296;SDS011;37380;45.186;9.792;2023-07-20T08:56:30;15.13;;;6.65;;
51296;SDS011;37380;45.186;9.792;2023-07-20T08:58:58;11.23;;;6.00;;
51296;SDS011;37380;45.186;9.792;2023-07-20T09:01:32;9.38;;;6.40;;
51296;SDS011;37380;45.186;9.792;2023-07-20T09:04:33;15.07;;;8.50;;
51296;SDS011;37380;45.186;9.792;2023-07-20T09:07:27;37.42;;;14.98;;
51296;SDS011;37380;45.186;9.792;2023-07-20T09:09:56;11.25;;;6.45;;
51296;SDS011;37380;45.186;9.792;2023-07-20T09:12:31;10.98;;;7.43;;
51296;SDS011;37380;45.186;9.792;2023-07-20T09:15:35;9.57;;;8.63;;
51296;SDS011;37380;45.186;9.792;2023-07-20T09:18:30;13.30;;;6.30;;
51296;SDS011;37380;45.186;9.792;2023-07-20T09:20:58;9.02;;;6.97;;
51296;SDS011;37380;45.186;9.792;2023-07-20T09:23:34;12.93;;;5.95;;
51296;SDS011;37380;45.186;9.792;2023-07-20T09:26:12;10.13;;;6.70;;
51296;SDS011;37380;45.186;9.792;2023-07-20T09:31:20;21.25;;;9.98;;
51296;SDS011;37380;45.186;9.792;2023-07-20T09:33:48;11.40;;;7.60;;
51296;SDS011;37380;45.186;9.792;2023-07-20T09:36:19;21.30;;;7.85;;
51296;SDS011;37380;45.186;9.792;2023-07-20T09:39:06;7.38;;;5.65;;
51296;SDS011;37380;45.186;9.792;2023-07-20T09:41:40;14.20;;;7.05;;
51296;SDS011;37380;45.186;9.792;2023-07-20T09:45:01;10.40;;;7.60;;
51296;SDS011;37380;45.186;9.792;2023-07-20T09:48:03;29.35;;;7.32;;
51296;SDS011;37380;45.186;9.792;2023-07-20T09:50:41;16.63;;;5.97;;
51296;SDS011;37380;45.186;9.792;2023-07-20T09:53:13;16.35;;;7.25;;
51296;SDS011;37380;45.186;9.792;2023-07-20T09:55:44;12.82;;;7.03;;
51296;SDS011;37380;45.186;9.792;2023-07-20T09:58:15;13.32;;;6.90;;
51296;SDS011;37380;45.186;9.792;2023-07-20T10:00:50;16.40;;;6.85;;
51296;SDS011;37380;45.186;9.792;2023-07-20T10:03:53;17.85;;;6.60;;
51296;SDS011;37380;45.186;9.792;2023-07-20T10:06:48;17.67;;;6.63;;
51296;SDS011;37380;45.186;9.792;2023-07-20T10:09:46;15.75;;;6.93;;
51296;SDS011;37380;45.186;9.792;2023-07-20T10:12:41;13.68;;;7.47;;
51296;SDS011;37380;45.186;9.792;2023-07-20T10:20:42;11.95;;;5.80;;
51296;SDS011;37380;45.186;9.792;2023-07-20T10:23:14;13.70;;;5.82;;
51296;SDS011;37380;45.186;9.792;2023-07-20T10:25:41;7.40;;;5.90;;
51296;SDS011;37380;45.186;9.792;2023-07-20T10:28:10;9.40;;;5.68;;
51296;SDS011;37380;45.186;9.792;2023-07-20T10:30:37;11.25;;;5.63;;
51296;SDS011;37380;45.186;9.792;2023-07-20T10:33:05;10.13;;;5.57;;
51296;SDS011;37380;45.186;9.792;2023-07-20T10:35:55;12.40;;;6.03;;
51296;SDS011;37380;45.186;9.792;2023-07-20T10:39:03;14.88;;;5.80;;
51296;SDS011;37380;45.186;9.792;2023-07-20T10:41:33;11.05;;;7.22;;
51296;SDS011;37380;45.186;9.792;2023-07-20T10:44:02;19.10;;;6.28;;
51296;SDS011;37380;45.186;9.792;2023-07-20T10:46:44;18.25;;;7.60;;
51296;SDS011;37380;45.186;9.792;2023-07-20T10:49:13;15.25;;;5.97;;
51296;SDS011;37380;45.186;9.792;2023-07-20T10:51:42;7.55;;;5.85;;
51296;SDS011;37380;45.186;9.792;2023-07-20T10:56:47;12.20;;;6.28;;
51296;SDS011;37380;45.186;9.792;2023-07-20T11:01:50;11.73;;;7.40;;
51296;SDS011;37380;45.186;9.792;2023-07-20T11:07:37;13.25;;;6.28;;
51296;SDS011;37380;45.186;9.792;2023-07-20T11:10:14;8.45;;;6.53;;
51296;SDS011;37380;45.186;9.792;2023-07-20T11:13:34;11.20;;;6.05;;
51296;SDS011;37380;45.186;9.792;2023-07-20T11:16:19;14.15;;;6.70;;
51296;SDS011;37380;45.186;9.792;2023-07-20T11:19:28;11.00;;;6.40;;
51296;SDS011;37380;45.186;9.792;2023-07-20T11:21:58;7.47;;;5.47;;
51296;SDS011;37380;45.186;9.792;2023-07-20T11:24:30;12.65;;;6.28;;
51296;SDS011;37380;45.186;9.792;2023-07-20T11:26:58;17.08;;;6.43;;
51296;SDS011;37380;45.186;9.792;2023-07-20T11:29:25;12.70;;;6.40;;
51296;SDS011;37380;45.186;9.792;2023-07-20T11:31:56;12.15;;;6.43;;
51296;SDS011;37380;45.186;9.792;2023-07-20T11:34:23;7.63;;;6.82;;
51296;SDS011;37380;45.186;9.792;2023-07-20T11:36:50;12.13;;;5.97;;
51296;SDS011;37380;45.186;9.792;2023-07-20T11:39:21;7.60;;;6.25;;
51296;SDS011;37380;45.186;9.792;2023-07-20T11:41:50;16.08;;;6.60;;
51296;SDS011;37380;45.186;9.792;2023-07-20T11:44:19;11.55;;;5.25;;
51296;SDS011;37380;45.186;9.792;2023-07-20T11:47:01;9.98;;;6.35;;
51296;SDS011;37380;45.186;9.792;2023-07-20T11:49:34;12.07;;;5.78;;
51296;SDS011;37380;45.186;9.792;2023-07-20T11:52:13;9.05;;;5.60;;
51296;SDS011;37380;45.186;9.792;2023-07-20T11:54:42;8.70;;;5.25;;
51296;SDS011;37380;45.186;9.792;2023-07-20T11:57:18;5.75;;;5.15;;
51296;SDS011;37380;45.186;9.792;2023-07-20T11:59:55;12.77;;;5.53;;
51296;SDS011;37380;45.186;9.792;2023-07-20T12:02:26;11.45;;;5.68;;
51296;SDS011;37380;45.186;9.792;2023-07-20T12:05:00;11.48;;;7.05;;
51296;SDS011;37380;45.186;9.792;2023-07-20T12:08:03;10.38;;;6.07;;
51296;SDS011;37380;45.186;9.792;2023-07-20T12:10:57;11.13;;;5.40;;
51296;SDS011;37380;45.186;9.792;2023-07-20T12:13:35;10.48;;;5.15;;
51296;SDS011;37380;45.186;9.792;2023-07-20T12:16:41;10.13;;;5.95;;
51296;SDS011;37380;45.186;9.792;2023-07-20T12:19:09;10.52;;;6.07;;
51296;SDS011;37380;45.186;9.792;2023-07-20T12:21:39;21.33;;;6.65;;
51296;SDS011;37380;45.186;9.792;2023-07-20T12:24:10;8.73;;;5.95;;
51296;SDS011;37380;45.186;9.792;2023-07-20T12:26:37;6.80;;;4.50;;
51296;SDS011;37380;45.186;9.792;2023-07-20T12:29:04;9.98;;;5.13;;
51296;SDS011;37380;45.186;9.792;2023-07-20T12:31:33;15.60;;;6.18;;
51296;SDS011;37380;45.186;9.792;2023-07-20T12:34:03;12.15;;;5.28;;
51296;SDS011;37380;45.186;9.792;2023-07-20T12:36:30;9.57;;;5.90;;
51296;SDS011;37380;45.186;9.792;2023-07-20T12:38:58;15.23;;;6.15;;
51296;SDS011;37380;45.186;9.792;2023-07-20T12:41:25;11.68;;;6.13;;
51296;SDS011;37380;45.186;9.792;2023-07-20T12:43:52;11.45;;;4.50;;
51296;SDS011;37380;45.186;9.792;2023-07-20T12:46:20;18.35;;;6.90;;
51296;SDS011;37380;45.186;9.792;2023-07-20T12:48:47;14.07;;;6.65;;
51296;SDS011;37380;45.186;9.792;2023-07-20T12:51:15;27.90;;;9.73;;
51296;SDS011;37380;45.186;9.792;2023-07-20T12:53:43;15.00;;;9.65;;
51296;SDS011;37380;45.186;9.792;2023-07-20T12:56:10;14.30;;;5.97;;
51296;SDS011;37380;45.186;9.792;2023-07-20T12:58:40;11.85;;;6.65;;
51296;SDS011;37380;45.186;9.792;2023-07-20T13:01:07;20.38;;;7.20;;
51296;SDS011;37380;45.186;9.792;2023-07-20T13:03:34;11.18;;;6.40;;
51296;SDS011;37380;45.186;9.792;2023-07-20T13:06:21;13.05;;;6.45;;
51296;SDS011;37380;45.186;9.792;2023-07-20T13:08:51;12.90;;;5.35;;
51296;SDS011;37380;45.186;9.792;2023-07-20T13:11:22;15.32;;;6.93;;
51296;SDS011;37380;45.186;9.792;2023-07-20T13:13:49;8.32;;;5.70;;
51296;SDS011;37380;45.186;9.792;2023-07-20T13:16:16;12.05;;;6.47;;
51296;SDS011;37380;45.186;9.792;2023-07-20T13:18:44;14.82;;;5.85;;
51296;SDS011;37380;45.186;9.792;2023-07-20T13:21:11;13.40;;;5.82;;
51296;SDS011;37380;45.186;9.792;2023-07-20T13:23:39;11.77;;;5.78;;
51296;SDS011;37380;45.186;9.792;2023-07-20T13:26:06;9.95;;;5.85;;
51296;SDS011;37380;45.186;9.792;2023-07-20T13:28:35;10.18;;;4.90;;
51296;SDS011;37380;45.186;9.792;2023-07-20T13:31:03;10.73;;;5.85;;
51296;SDS011;37380;45.186;9.792;2023-07-20T13:33:30;21.75;;;6.55;;
51296;SDS011;37380;45.186;9.792;2023-07-20T13:36:02;13.20;;;6.47;;
51296;SDS011;37380;45.186;9.792;2023-07-20T13:38:35;10.30;;;6.15;;
51296;SDS011;37380;45.186;9.792;2023-07-20T13:41:02;11.65;;;6.25;;
51296;SDS011;37380;45.186;9.792;2023-07-20T13:43:30;12.88;;;6.57;;
51296;SDS011;37380;45.186;9.792;2023-07-20T13:45:57;8.95;;;5.18;;
51296;SDS011;37380;45.186;9.792;2023-07-20T13:48:24;21.63;;;6.68;;
51296;SDS011;37380;45.186;9.792;2023-07-20T13:50:54;8.80;;;5.57;;
51296;SDS011;37380;45.186;9.792;2023-07-20T13:53:24;16.38;;;6.32;;
51296;SDS011;37380;45.186;9.792;2023-07-20T13:55:54;11.48;;;6.32;;
51296;SDS011;37380;45.186;9.792;2023-07-20T13:58:24;12.68;;;6.32;;
51296;SDS011;37380;45.186;9.792;2023-07-20T14:00:52;10.90;;;6.88;;
51296;SDS011;37380;45.186;9.792;2023-07-20T14:03:19;19.33;;;6.78;;
51296;SDS011;37380;45.186;9.792;2023-07-20T14:05:46;8.57;;;6.80;;
51296;SDS011;37380;45.186;9.792;2023-07-20T14:08:16;11.07;;;6.82;;
51296;SDS011;37380;45.186;9.792;2023-07-20T14:10:43;24.52;;;7.85;;
51296;SDS011;37380;45.186;9.792;2023-07-20T14:13:13;13.82;;;7.40;;
51296;SDS011;37380;45.186;9.792;2023-07-20T14:15:40;12.35;;;9.57;;
51296;SDS011;37380;45.186;9.792;2023-07-20T14:18:07;16.38;;;7.78;;
51296;SDS011;37380;45.186;9.792;2023-07-20T14:20:34;11.65;;;7.18;;
51296;SDS011;37380;45.186;9.792;2023-07-20T14:23:04;8.45;;;7.47;;
51296;SDS011;37380;45.186;9.792;2023-07-20T14:25:32;12.75;;;7.45;;
51296;SDS011;37380;45.186;9.792;2023-07-20T14:28:03;13.00;;;7.57;;
51296;SDS011;37380;45.186;9.792;2023-07-20T14:30:31;8.35;;;6.18;;
51296;SDS011;37380;45.186;9.792;2023-07-20T14:32:57;14.00;;;7.95;;
51296;SDS011;37380;45.186;9.792;2023-07-20T14:35:25;15.00;;;7.93;;
51296;SDS011;37380;45.186;9.792;2023-07-20T14:37:52;13.95;;;7.57;;
51296;SDS011;37380;45.186;9.792;2023-07-20T14:40:20;13.32;;;7.20;;
51296;SDS011;37380;45.186;9.792;2023-07-20T14:42:47;15.98;;;6.15;;
51296;SDS011;37380;45.186;9.792;2023-07-20T14:45:14;14.57;;;7.03;;
51296;SDS011;37380;45.186;9.792;2023-07-20T14:47:41;15.65;;;6.60;;
51296;SDS011;37380;45.186;9.792;2023-07-20T14:50:09;18.35;;;6.80;;
51296;SDS011;37380;45.186;9.792;2023-07-20T14:52:37;11.50;;;6.00;;
51296;SDS011;37380;45.186;9.792;2023-07-20T14:55:15;16.27;;;8.15;;
51296;SDS011;37380;45.186;9.792;2023-07-20T14:57:48;6.60;;;5.82;;
51296;SDS011;37380;45.186;9.792;2023-07-20T15:00:49;14.57;;;6.45;;
51296;SDS011;37380;45.186;9.792;2023-07-20T15:03:50;13.50;;;6.93;;
51296;SDS011;37380;45.186;9.792;2023-07-20T15:06:51;11.77;;;6.43;;
51296;SDS011;37380;45.186;9.792;2023-07-20T15:09:45;8.75;;;6.43;;
51296;SDS011;37380;45.186;9.792;2023-07-20T15:12:12;8.20;;;6.93;;
51296;SDS011;37380;45.186;9.792;2023-07-20T15:14:40;13.63;;;6.00;;
51296;SDS011;37380;45.186;9.792;2023-07-20T15:17:09;10.52;;;6.00;;
51296;SDS011;37380;45.186;9.792;2023-07-20T15:19:38;12.75;;;6.25;;
51296;SDS011;37380;45.186;9.792;2023-07-20T15:22:05;7.30;;;4.22;;
51296;SDS011;37380;45.186;9.792;2023-07-20T15:24:33;7.35;;;5.15;;
51296;SDS011;37380;45.186;9.792;2023-07-20T15:27:01;7.85;;;4.75;;
51296;SDS011;37380;45.186;9.792;2023-07-20T15:29:29;23.20;;;5.88;;
51296;SDS011;37380;45.186;9.792;2023-07-20T15:31:59;12.88;;;5.82;;